Time;durP1;ratioP1;P1;durP2;ratioP2;P2;SDS_P1;SDS_P2;PMS_P1;PMS_P2;Temp;Humidity;BMP_temperature;BMP_pressure;BME280_temperature;BME280_humidity;BME280_pressure;Samples;Min_cycle;Max_cycle;Signal;HPM_P1;HPM_P2
2022/03/14 00:01:40;;;;;;;;;104.33;72.33;;;;;-2.26;46.17;100851.31;6308019;20;3684590;-46
2022/03/14 00:04:10;;;;;;;;;100.67;72.00;;;;;-2.15;45.10;100850.53;6309730;20;3671156;-45
2022/03/14 00:06:40;;;;;;;;;100.67;70.67;;;;;-2.32;45.84;100840.72;6308212;20;3662721;-44
2022/03/14 00:09:10;;;;;;;;;110.00;75.67;;;;;-2.18;45.29;100843.50;6312871;20;3686686;-47
2022/03/14 00:11:39;;;;;;;;;109.67;76.67;;;;;-2.04;45.43;100852.38;6279951;20;2914932;-43
2022/03/14 00:14:09;;;;;;;;;108.33;76.67;;;;;-2.58;46.44;100848.38;6316438;20;3674255;-44
2022/03/14 00:16:40;;;;;;;;;86.33;66.67;;;;;-2.65;46.79;100855.28;6315677;20;2886827;-46
2022/03/14 00:19:10;;;;;;;;;95.00;66.00;;;;;-2.49;47.07;100853.72;6316465;20;3543950;-45
2022/03/14 00:21:41;;;;;;;;;86.80;62.00;;;;;-2.59;47.82;100862.38;6312289;20;3662732;-44
2022/03/14 00:24:11;;;;;;;;;86.00;66.00;;;;;-2.54;46.75;100855.41;6279692;20;2500375;-44
2022/03/14 00:26:41;;;;;;;;;89.33;64.00;;;;;-2.56;47.00;100872.91;6285355;20;2890875;-48
2022/03/14 00:29:10;;;;;;;;;87.67;65.33;;;;;-2.67;46.54;100875.41;6314922;20;2906627;-45
2022/03/14 00:31:40;;;;;;;;;76.00;56.60;;;;;-2.28;45.36;100875.84;6314381;20;3625252;-45
2022/03/14 00:34:09;;;;;;;;;74.80;57.20;;;;;-2.51;46.45;100875.59;6283786;20;3612703;-45
2022/03/14 00:36:41;;;;;;;;;82.60;60.00;;;;;-2.72;47.74;100876.22;6285037;20;3643997;-46
2022/03/14 00:39:09;;;;;;;;;80.00;58.00;;;;;-2.56;46.50;100877.28;6275084;20;2500247;-44
2022/03/14 00:41:37;;;;;;;;;76.50;53.00;;;;;-2.91;48.93;100877.75;6279704;20;2500262;-44
2022/03/14 00:44:05;;;;;;;;;80.50;59.00;;;;;-2.92;48.59;100874.25;6278854;20;2500246;-44
2022/03/14 00:46:36;;;;;;;;;81.60;60.80;;;;;-2.79;48.36;100875.31;6285958;20;3629634;-46
2022/03/14 00:49:05;;;;;;;;;82.60;60.40;;;;;-2.49;47.23;100876.50;6278426;20;3630577;-44
2022/03/14 00:51:35;;;;;;;;;87.00;63.00;;;;;-2.79;47.79;100877.00;6279101;20;2500433;-45
2022/03/14 00:54:04;;;;;;;;;73.00;58.00;;;;;-2.79;48.20;100880.56;6283845;20;2871128;-45
2022/03/14 00:56:33;;;;;;;;;78.33;60.00;;;;;-2.84;47.98;100878.72;6284392;20;2887843;-45
2022/03/14 00:59:04;;;;;;;;;88.00;61.00;;;;;-2.22;46.87;100878.50;6315180;20;2899220;-46
2022/03/14 01:01:32;;;;;;;;;84.50;64.00;;;;;-2.45;47.30;100888.78;6311910;20;2500284;-45
2022/03/14 01:04:01;;;;;;;;;83.20;63.20;;;;;-2.53;48.08;100885.19;6284413;20;3634628;-43
2022/03/14 01:06:30;;;;;;;;;18.67;0.00;;;;;-2.75;48.77;100881.47;6284865;20;3521195;-46
2022/03/14 01:08:57;;;;;;;;;75.50;60.00;;;;;-2.87;49.37;100877.84;6310393;20;2500506;-46
2022/03/14 01:11:26;;;;;;;;;84.60;60.00;;;;;-2.87;48.18;100877.84;6281174;20;3649225;-45
2022/03/14 01:13:55;;;;;;;;;84.50;63.00;;;;;-3.18;48.52;100878.31;6276135;20;2500371;-46
2022/03/14 01:16:25;;;;;;;;;93.00;66.00;;;;;-3.14;48.52;100887.97;6283562;20;3658576;-45
2022/03/14 01:18:52;;;;;;;;;68.00;49.00;;;;;-3.14;48.59;100885.34;6311270;20;2499250;-44
2022/03/14 01:21:23;;;;;;;;;87.50;59.67;;;;;-3.27;49.34;100886.03;6282544;20;3660785;-45
2022/03/14 01:23:52;;;;;;;;;77.67;52.00;;;;;-3.16;49.02;100876.56;6313590;20;2885726;-46
2022/03/14 01:26:20;;;;;;;;;69.00;54.00;;;;;-2.99;49.24;100882.03;6310457;20;2500357;-43
2022/03/14 01:28:48;;;;;;;;;78.50;60.50;;;;;-3.05;48.58;100880.22;6282595;20;2886704;-43
2022/03/14 01:31:17;;;;;;;;;77.00;58.00;;;;;-3.01;48.47;100882.00;6282518;20;2885834;-47
2022/03/14 01:33:45;;;;;;;;;73.00;53.00;;;;;-2.85;48.60;100884.84;6277517;20;2497200;-46
2022/03/14 01:36:13;;;;;;;;;72.00;54.00;;;;;-3.36;48.89;100886.81;6280360;20;2493020;-47
2022/03/14 01:38:42;;;;;;;;;71.00;54.40;;;;;-3.24;48.71;100888.69;6313010;20;3606530;-48
2022/03/14 01:41:10;;;;;;;;;72.50;54.50;;;;;-3.12;48.65;100888.88;6280729;20;2871067;-44
2022/03/14 01:43:40;;;;;;;;;61.33;48.00;;;;;-3.50;49.24;100888.31;6281625;20;2894016;-46
2022/03/14 01:46:10;;;;;;;;;78.00;57.00;;;;;-2.81;47.87;100892.78;6314127;20;2871169;-47
2022/03/14 01:48:39;;;;;;;;;67.00;49.00;;;;;-3.15;48.64;100905.47;6281195;20;2859754;-47
2022/03/14 01:51:08;;;;;;;;;63.50;43.00;;;;;-2.74;47.75;100901.59;6284224;20;2887735;-46
2022/03/14 01:53:37;;;;;;;;;65.33;50.33;;;;;-2.83;48.28;100918.16;6279989;20;3579392;-47
2022/03/14 01:56:06;;;;;;;;;71.00;49.00;;;;;-2.89;48.23;100915.47;6278830;20;2879560;-44
2022/03/14 01:58:35;;;;;;;;;67.00;48.00;;;;;-3.53;48.47;100918.03;6282718;20;2894034;-45
2022/03/14 02:01:05;;;;;;;;;66.40;48.40;;;;;-3.38;48.49;100912.16;6279556;20;3633592;-43
2022/03/14 02:03:33;;;;;;;;;70.50;54.00;;;;;-3.25;48.33;100921.97;6283442;20;2869109;-43
2022/03/14 02:06:01;;;;;;;;;70.00;49.00;;;;;-2.79;46.97;100921.69;6280733;20;2508738;-43
2022/03/14 02:08:28;;;;;;;;;64.00;49.00;;;;;-3.14;47.26;100922.13;6281084;20;2508712;-43
2022/03/14 02:10:57;;;;;;;;;69.67;50.67;;;;;-2.95;47.19;100925.88;6283214;20;3617911;-43
2022/03/14 02:13:26;;;;;;;;;71.00;53.80;;;;;-3.09;47.02;100923.94;6277897;20;3611765;-43
2022/03/14 02:15:54;;;;;;;;;73.00;54.00;;;;;-2.80;47.13;100927.81;6276143;20;2500827;-45
2022/03/14 02:18:23;;;;;;;;;77.20;54.00;;;;;-2.76;47.02;100932.28;6282161;20;3626412;-43
2022/03/14 02:20:52;;;;;;;;;80.20;58.40;;;;;-2.81;47.28;100931.31;6281970;20;3645005;-44
2022/03/14 02:23:20;;;;;;;;;78.50;58.00;;;;;-2.73;46.99;100932.31;6277900;20;2500253;-46
2022/03/14 02:25:55;;;;;;;;;77.00;60.00;;;;;-2.95;47.86;100937.28;6280140;20;2873187;-43
2022/03/14 02:28:24;;;;;;;;;69.20;50.40;;;;;-3.14;47.89;100940.50;6279997;20;3629535;-45
2022/03/14 02:30:54;;;;;;;;;70.00;52.00;;;;;-3.31;49.37;100941.16;6282650;20;3620049;-45
2022/03/14 02:33:23;;;;;;;;;77.50;55.00;;;;;-2.92;48.00;100946.97;6279013;20;2890880;-44
2022/03/14 02:35:51;;;;;;;;;79.00;58.00;;;;;-3.44;49.87;100951.44;6277510;20;2500249;-46
2022/03/14 02:38:19;;;;;;;;;56.00;46.00;;;;;-3.65;49.94;100946.72;6282060;20;2855535;-43
2022/03/14 02:40:49;;;;;;;;;75.00;52.00;;;;;-3.09;49.01;100954.59;6280002;20;2883766;-45
2022/03/14 02:43:24;;;;;;;;;74.00;60.00;;;;;-3.20;49.76;100961.44;6281852;20;2872298;-44
2022/03/14 02:45:54;;;;;;;;;67.40;51.00;;;;;-3.35;49.32;100951.56;6277578;20;3633550;-44
2022/03/14 02:48:23;;;;;;;;;69.00;52.00;;;;;-3.23;49.16;100954.41;6279363;20;2496177;-44
2022/03/14 02:50:53;;;;;;;;;67.00;54.00;;;;;-3.75;50.86;100957.06;6282199;20;2864821;-43
2022/03/14 02:53:22;;;;;;;;;69.80;53.20;;;;;-4.12;52.40;100957.28;6277600;20;3587717;-44
2022/03/14 02:55:50;;;;;;;;;68.00;49.00;;;;;-4.04;52.31;100961.78;6273011;20;2866909;-44
2022/03/14 02:58:19;;;;;;;;;74.00;53.00;;;;;-4.13;52.59;100958.09;6278165;20;2883612;-45
2022/03/14 03:00:47;;;;;;;;;72.50;54.00;;;;;-3.81;51.86;100959.59;6271699;20;2505586;-48
2022/03/14 03:03:16;;;;;;;;;75.00;57.00;;;;;-3.89;51.52;100952.44;6274960;20;2502653;-48
2022/03/14 03:05:45;;;;;;;;;74.00;56.00;;;;;-3.57;51.36;100963.47;6274027;20;2876475;-52
2022/03/14 03:08:13;;;;;;;;;78.00;58.00;;;;;-4.10;53.12;100964.31;6274246;20;2501387;-48
2022/03/14 03:10:42;;;;;;;;;70.00;54.00;;;;;-4.13;53.30;100968.59;6279393;20;2865867;-47
2022/03/14 03:13:13;;;;;;;;;67.00;48.00;;;;;-3.65;51.41;100970.34;6275515;20;2510647;-50
2022/03/14 03:15:42;;;;;;;;;68.80;52.40;;;;;-4.05;52.04;100967.03;6282047;20;3609627;-48
2022/03/14 03:18:11;;;;;;;;;67.00;49.00;;;;;-3.90;52.47;100969.91;6281523;20;2884653;-49
2022/03/14 03:20:42;;;;;;;;;73.00;53.00;;;;;-4.04;52.59;100971.41;6275644;20;2875245;-47
2022/03/14 03:23:10;;;;;;;;;75.00;56.00;;;;;-3.90;51.67;100969.91;6280832;20;2882558;-48
2022/03/14 03:25:38;;;;;;;;;67.00;50.00;;;;;-4.01;52.66;100974.97;6278285;20;2510690;-45
2022/03/14 03:28:06;;;;;;;;;66.00;48.80;;;;;-4.01;52.58;100971.47;6279747;20;3613942;-47
2022/03/14 03:30:34;;;;;;;;;76.00;57.00;;;;;-4.30;52.33;100979.66;6277838;20;2878412;-46
2022/03/14 03:33:04;;;;;;;;;78.00;56.00;;;;;-4.55;54.11;100982.66;6279667;20;2887741;-46
2022/03/14 03:35:34;;;;;;;;;72.50;55.00;;;;;-4.34;54.13;100985.72;6281297;20;2869046;-46
2022/03/14 03:38:02;;;;;;;;;73.00;56.00;;;;;-4.53;54.76;100983.56;6277379;20;2503204;-50
2022/03/14 03:40:30;;;;;;;;;85.50;61.00;;;;;-4.57;54.27;100989.59;6274488;20;2502350;-46
2022/03/14 03:42:59;;;;;;;;;87.80;64.60;;;;;-4.09;52.79;100992.28;6280059;20;3644021;-48
2022/03/14 03:45:27;;;;;;;;;76.50;59.00;;;;;-4.38;53.60;100994.34;6282255;20;2502352;-46
2022/03/14 03:47:57;;;;;;;;;43.80;20.60;;;;;-4.63;54.92;100999.09;6308691;20;2836901;-48
2022/03/14 03:50:26;;;;;;;;;74.00;57.20;;;;;-4.37;54.29;101004.00;6282571;20;3609648;-47
2022/03/14 03:52:53;;;;;;;;;73.00;57.50;;;;;-4.26;53.96;101006.84;6281569;20;2868316;-47
2022/03/14 03:55:22;;;;;;;;;78.50;58.00;;;;;-4.00;53.16;101007.34;6285052;20;2878353;-48
2022/03/14 03:57:51;;;;;;;;;70.40;52.40;;;;;-4.28;52.91;101012.03;6280329;20;3632511;-44
2022/03/14 04:00:20;;;;;;;;;75.00;57.00;;;;;-4.36;54.23;101002.25;6281118;20;2870250;-47
2022/03/14 04:02:50;;;;;;;;;69.67;52.67;;;;;-3.95;52.43;101005.66;6285756;20;3606606;-45
2022/03/14 04:05:22;;;;;;;;;63.00;51.00;;;;;-4.56;54.11;101001.84;6287164;20;2510816;-45
2022/03/14 04:07:52;;;;;;;;;74.00;51.33;;;;;-4.46;53.92;100995.94;6285045;20;3622256;-45
2022/03/14 04:10:21;;;;;;;;;66.00;49.00;;;;;-4.89;54.83;101002.91;6283640;20;2870106;-45
2022/03/14 04:12:49;;;;;;;;;79.50;55.00;;;;;-4.97;55.95;101004.47;6281327;20;2500337;-45
2022/03/14 04:15:22;;;;;;;;;82.50;55.50;;;;;-4.59;54.55;101004.41;6283346;20;2891972;-45
2022/03/14 04:17:52;;;;;;;;;117.00;85.67;;;;;-3.83;52.02;101013.78;6284893;20;3698261;-45
2022/03/14 04:20:23;;;;;;;;;103.67;72.00;;;;;-4.09;52.75;101005.41;6280423;20;3668968;-47
2022/03/14 04:22:53;;;;;;;;;85.00;63.40;;;;;-4.07;52.58;101013.31;6312898;20;3631722;-46
2022/03/14 04:25:21;;;;;;;;;82.60;59.20;;;;;-3.96;52.85;101019.66;6281783;20;3655417;-45
2022/03/14 04:27:55;;;;;;;;;83.20;59.60;;;;;-4.18;53.03;101026.22;6281396;20;3639910;-45
2022/03/14 04:30:23;;;;;;;;;78.50;53.00;;;;;-4.27;53.35;101029.53;6279355;20;2502416;-46
2022/03/14 04:32:52;;;;;;;;;71.00;57.20;;;;;-4.28;54.06;101033.00;6285486;20;3597149;-47
2022/03/14 04:35:20;;;;;;;;;83.00;57.50;;;;;-4.31;54.00;101032.97;6314007;20;2889907;-45
2022/03/14 04:37:47;;;;;;;;;83.00;57.00;;;;;-4.47;53.96;101033.50;6278151;20;2502584;-47
2022/03/14 04:40:16;;;;;;;;;75.00;60.20;;;;;-4.58;53.44;101037.59;6279869;20;3599278;-47
2022/03/14 04:42:45;;;;;;;;;76.40;51.80;;;;;-4.63;53.45;101046.25;6279649;20;3650372;-47
2022/03/14 04:45:13;;;;;;;;;86.00;62.00;;;;;-4.50;53.45;101047.41;6278309;20;2502464;-46
2022/03/14 04:47:43;;;;;;;;;79.75;55.00;;;;;-4.60;54.40;101039.31;6281781;20;3627310;-47
2022/03/14 04:50:12;;;;;;;;;68.60;51.00;;;;;-4.69;53.88;101050.47;6310270;20;3632654;-49
2022/03/14 04:52:41;;;;;;;;;84.80;61.80;;;;;-4.54;54.53;101049.94;6279606;20;3663767;-45
2022/03/14 04:55:09;;;;;;;;;79.00;59.00;;;;;-4.96;54.09;101040.25;6277725;20;2500270;-45
2022/03/14 04:57:39;;;;;;;;;76.20;55.40;;;;;-4.64;53.97;101052.34;6276432;20;3629534;-45
2022/03/14 05:00:09;;;;;;;;;79.40;56.80;;;;;-4.93;54.03;101051.69;6275637;20;3621087;-44
2022/03/14 05:02:38;;;;;;;;;67.40;52.20;;;;;-4.67;53.77;101057.50;6277865;20;3632645;-43
2022/03/14 05:05:11;;;;;;;;;81.40;59.80;;;;;-4.61;53.25;101055.88;6277799;20;3632640;-43
2022/03/14 05:07:40;;;;;;;;;80.50;59.00;;;;;-4.53;53.69;101068.31;6278463;20;2872221;-43
2022/03/14 05:10:10;;;;;;;;;81.80;60.40;;;;;-4.79;53.58;101064.22;6278156;20;3629565;-42
2022/03/14 05:12:39;;;;;;;;;87.00;61.20;;;;;-4.97;54.61;101060.34;6278508;20;3645067;-44
2022/03/14 05:15:09;;;;;;;;;79.80;60.40;;;;;-5.05;54.87;101066.22;6275767;20;3652362;-46
2022/03/14 05:17:38;;;;;;;;;82.60;56.40;;;;;-4.53;53.73;101063.09;6278112;20;3646137;-42
2022/03/14 05:20:09;;;;;;;;;91.67;66.00;;;;;-4.15;52.02;101059.50;6280211;20;3655466;-43
2022/03/14 05:22:50;;;;;;;;;87.67;63.00;;;;;-4.87;53.91;101062.31;6311134;20;2900338;-45
2022/03/14 05:25:22;;;;;;;;;85.60;59.80;;;;;-4.75;54.70;101069.56;6307943;20;3646182;-47
2022/03/14 05:27:53;;;;;;;;;80.40;57.20;;;;;-4.45;53.52;101071.09;6278506;20;3645015;-46
2022/03/14 05:30:23;;;;;;;;;78.00;60.00;;;;;-3.78;51.88;101082.09;6280453;20;2875272;-44
2022/03/14 05:32:53;;;;;;;;;42.33;27.67;;;;;-3.92;52.44;101078.28;6282612;20;2853479;-43
2022/03/14 05:35:21;;;;;;;;;24.50;7.00;;;;;-3.80;52.65;101081.16;6312017;20;2812252;-43
2022/03/14 05:37:49;;;;;;;;;79.50;61.25;;;;;-3.71;52.97;101076.09;6187261;20;4435663;-43
2022/03/14 05:40:20;;;;;;;;;83.20;62.80;;;;;-3.61;51.76;101075.38;6278568;20;3625250;-44
2022/03/14 05:42:51;;;;;;;;;94.17;66.17;;;;;-3.31;50.83;101087.31;6279969;20;3655473;-43
2022/03/14 05:45:21;;;;;;;;;88.40;63.20;;;;;-3.28;51.17;101083.88;6312746;20;3641942;-43
2022/03/14 05:47:51;;;;;;;;;105.00;72.33;;;;;-2.84;50.24;101091.56;6283815;20;3692918;-43
2022/03/14 05:50:22;;;;;;;;;90.33;66.67;;;;;-2.90;50.52;101087.09;6313708;20;2898172;-44
2022/03/14 05:52:53;;;;;;;;;84.50;62.00;;;;;-2.94;50.41;101090.56;6313666;20;2889956;-45
2022/03/14 05:55:21;;;;;;;;;90.00;66.50;;;;;-2.11;49.22;101092.59;6274122;20;2500409;-44
2022/03/14 05:57:52;;;;;;;;;93.33;70.00;;;;;-1.95;47.46;101095.44;6278057;20;2900364;-45
2022/03/14 06:00:24;;;;;;;;;84.50;61.50;;;;;-1.47;46.23;101097.75;6306047;20;2500489;-43
2022/03/14 06:02:52;;;;;;;;;81.00;61.00;;;;;-1.23;44.76;101097.09;6278629;20;2500303;-44
2022/03/14 06:05:23;;;;;;;;;100.00;72.67;;;;;-0.43;44.14;101102.97;6280037;20;3658660;-43
2022/03/14 06:07:53;;;;;;;;;90.00;68.00;;;;;0.53;41.23;101094.59;6312201;20;3656465;-46
2022/03/14 06:10:23;;;;;;;;;86.33;66.00;;;;;0.91;40.40;101099.03;6307728;20;3649220;-45
2022/03/14 06:12:53;;;;;;;;;83.00;62.00;;;;;0.09;41.53;101103.25;6313396;20;2884752;-45
2022/03/14 06:15:22;;;;;;;;;82.67;62.00;;;;;0.63;40.79;101106.03;6310695;20;2883943;-44
2022/03/14 06:17:52;;;;;;;;;88.67;67.00;;;;;0.96;38.87;101123.72;6313653;20;3653490;-46
2022/03/14 06:20:22;;;;;;;;;96.33;69.33;;;;;0.61;39.54;101119.25;6313906;20;3661694;-45
2022/03/14 06:22:51;;;;;;;;;81.67;62.67;;;;;0.32;39.70;101113.91;6312134;20;2881516;-43
2022/03/14 06:25:19;;;;;;;;;81.00;62.00;;;;;0.41;39.36;101121.84;6308640;20;2500256;-44
2022/03/14 06:27:48;;;;;;;;;74.50;58.00;;;;;0.36;38.77;101122.72;6280774;20;2876422;-46
2022/03/14 06:30:19;;;;;;;;;85.00;62.00;;;;;0.32;38.03;101126.22;6279674;20;2900513;-45
2022/03/14 06:32:48;;;;;;;;;75.00;58.00;;;;;0.16;38.88;101126.16;6309471;20;2500331;-44
2022/03/14 06:35:19;;;;;;;;;75.00;57.50;;;;;0.55;38.22;101132.44;6279784;20;2881811;-43
2022/03/14 06:37:49;;;;;;;;;80.00;62.00;;;;;0.04;38.92;101134.03;6281816;20;2881532;-44
2022/03/14 06:40:19;;;;;;;;;82.67;62.00;;;;;0.48;38.31;101143.88;6281020;20;3648220;-44
2022/03/14 06:42:50;;;;;;;;;73.00;57.00;;;;;0.71;37.97;101148.34;6308092;20;2500337;-43
2022/03/14 06:45:24;;;;;;;;;79.50;59.00;;;;;1.14;39.01;101151.06;6275072;20;2500275;-44
2022/03/14 06:47:54;;;;;;;;;85.33;64.00;;;;;1.18;37.41;101152.81;6279077;20;3652370;-45
2022/03/14 06:50:24;;;;;;;;;83.67;61.33;;;;;1.33;38.54;101152.81;6310564;20;3642010;-43
2022/03/14 06:53:00;;;;;;;;;92.00;67.33;;;;;1.31;37.88;101160.75;6312217;20;3650365;-43
2022/03/14 06:55:30;;;;;;;;;100.00;73.00;;;;;1.51;37.98;101171.34;6311538;20;3669137;-45
2022/03/14 06:58:00;;;;;;;;;79.67;61.00;;;;;1.67;36.84;101168.69;6313396;20;3645168;-45
2022/03/14 07:00:29;;;;;;;;;96.33;72.33;;;;;1.76;37.21;101171.31;6310027;20;3657528;-43
2022/03/14 07:02:59;;;;;;;;;87.33;64.00;;;;;1.87;37.68;101165.97;6313240;20;3658855;-43
2022/03/14 07:05:29;;;;;;;;;85.67;62.33;;;;;1.65;37.86;101170.44;6278972;20;2905753;-44
2022/03/14 07:07:58;;;;;;;;;82.00;62.00;;;;;2.29;37.09;101172.94;6310627;20;2882367;-45
2022/03/14 07:10:30;;;;;;;;;83.00;63.33;;;;;2.27;37.24;101172.06;6278143;20;2877446;-43
2022/03/14 07:13:00;;;;;;;;;85.33;64.00;;;;;2.79;36.52;101173.56;6310719;20;3650259;-50
2022/03/14 07:15:29;;;;;;;;;89.00;64.33;;;;;4.05;33.87;101176.06;6309602;20;3666954;-50
2022/03/14 07:17:58;;;;;;;;;75.50;59.00;;;;;5.09;32.61;101180.97;6278625;20;2881568;-53
2022/03/14 07:20:28;;;;;;;;;81.67;64.67;;;;;5.07;32.68;101180.97;6278700;20;2880632;-50
2022/03/14 07:23:03;;;;;;;;;81.33;61.33;;;;;5.63;31.71;101186.31;6313735;20;3645070;-49
2022/03/14 07:25:39;;;;;;;;;80.00;60.33;;;;;4.70;33.05;101181.50;6314402;20;3636679;-48
2022/03/14 07:28:10;;;;;;;;;81.33;59.00;;;;;4.57;34.09;101190.53;6312520;20;3637840;-45
2022/03/14 07:30:40;;;;;;;;;83.33;62.67;;;;;4.27;34.42;101189.16;6309174;20;3656508;-43
2022/03/14 07:33:09;;;;;;;;;80.00;60.00;;;;;4.92;33.68;101198.03;6307773;20;2879441;-43
2022/03/14 07:35:39;;;;;;;;;92.33;69.00;;;;;4.14;35.39;101197.25;6278466;20;3668054;-43
2022/03/14 07:38:10;;;;;;;;;83.00;62.00;;;;;4.75;34.70;101200.06;6311121;20;3649205;-50
2022/03/14 07:40:42;;;;;;;;;84.33;63.67;;;;;4.30;34.75;101194.44;6307917;20;3638924;-47
2022/03/14 07:43:12;;;;;;;;;93.00;68.00;;;;;4.57;35.02;101202.06;6311561;20;3665894;-50
2022/03/14 07:45:41;;;;;;;;;82.67;62.67;;;;;4.02;34.31;101197.38;6312733;20;3651255;-48
2022/03/14 07:48:13;;;;;;;;;84.67;64.00;;;;;5.23;33.63;101197.59;6311520;20;3638756;-50
2022/03/14 07:50:43;;;;;;;;;86.00;63.67;;;;;5.00;33.96;101197.94;6310234;20;3638744;-51
2022/03/14 07:53:13;;;;;;;;;87.00;65.67;;;;;5.88;32.59;101203.63;6311923;20;3651281;-47
2022/03/14 07:55:43;;;;;;;;;77.00;60.00;;;;;4.98;32.62;101200.66;6311473;20;3632576;-50
2022/03/14 07:58:12;;;;;;;;;81.33;58.00;;;;;5.37;32.76;101198.28;6311512;20;2892039;-45
2022/03/14 08:00:42;;;;;;;;;82.33;61.33;;;;;6.13;31.97;101201.44;6309642;20;3654385;-44
2022/03/14 08:03:16;;;;;;;;;74.00;59.00;;;;;6.57;31.49;101204.13;6311749;20;2875307;-43
2022/03/14 08:05:47;;;;;;;;;75.33;58.00;;;;;7.19;30.71;101199.22;6309364;20;2876355;-48
2022/03/14 08:08:17;;;;;;;;;73.33;57.33;;;;;6.34;30.77;101204.59;6311019;20;3630460;-48
2022/03/14 08:10:46;;;;;;;;;58.50;44.00;;;;;6.03;31.83;101204.28;6309752;20;2865874;-51
2022/03/14 08:13:18;;;;;;;;;75.00;57.33;;;;;7.12;30.53;101210.06;6280254;20;3645117;-48
2022/03/14 08:15:47;;;;;;;;;71.50;57.50;;;;;7.35;30.60;101215.75;6307540;20;2876286;-50
2022/03/14 08:18:16;;;;;;;;;81.33;60.33;;;;;7.13;30.84;101214.47;6278488;20;3657511;-45
2022/03/14 08:20:47;;;;;;;;;67.33;53.00;;;;;7.41;29.67;101220.94;6309045;20;2867071;-49
2022/03/14 08:23:17;;;;;;;;;91.00;75.00;;;;;7.48;30.37;101217.22;6309459;20;3649243;-45
2022/03/14 08:25:47;;;;;;;;;78.00;57.67;;;;;7.60;30.26;101216.03;6310647;20;3652363;-44
2022/03/14 08:28:15;;;;;;;;;67.00;53.00;;;;;8.14;30.07;101215.53;6308323;20;2867070;-46
2022/03/14 08:30:45;;;;;;;;;63.00;50.00;;;;;8.58;29.27;101228.63;6281560;20;2859653;-45
2022/03/14 08:33:16;;;;;;;;;67.33;54.67;;;;;8.32;29.54;101219.50;6286775;20;3624249;-43
2022/03/14 08:35:46;;;;;;;;;69.33;54.00;;;;;8.63;29.17;101221.31;6313610;20;2877465;-44
2022/03/14 08:38:15;;;;;;;;;73.00;55.00;;;;;8.80;28.56;101228.88;6315991;20;3647096;-44
2022/03/14 08:40:45;;;;;;;;;73.00;51.33;;;;;8.52;28.06;101234.16;6312915;20;3648158;-46
2022/03/14 08:43:14;;;;;;;;;61.00;49.50;;;;;8.70;27.82;101230.06;6315997;20;2848406;-45
2022/03/14 08:45:44;;;;;;;;;58.33;49.00;;;;;8.97;28.02;101223.88;6283009;20;2869000;-45
2022/03/14 08:48:13;;;;;;;;;71.33;55.00;;;;;8.85;28.32;101221.59;6316347;20;2868033;-44
2022/03/14 08:50:43;;;;;;;;;70.33;53.33;;;;;9.24;28.78;101226.63;6315035;20;3635095;-44
2022/03/14 08:53:14;;;;;;;;;67.33;51.00;;;;;9.58;27.73;101226.44;6315799;20;3632532;-44
2022/03/14 08:55:44;;;;;;;;;56.33;45.67;;;;;9.45;27.67;101233.13;6315756;20;2865257;-45
2022/03/14 08:58:14;;;;;;;;;49.67;41.00;;;;;9.87;27.35;101241.59;6315527;20;3618066;-45
2022/03/14 09:00:44;;;;;;;;;71.67;56.00;;;;;10.07;27.29;101230.16;6312209;20;3627302;-44
2022/03/14 09:03:14;;;;;;;;;66.00;51.00;;;;;9.63;27.50;101226.28;6316553;20;3638919;-46
2022/03/14 09:05:43;;;;;;;;;70.67;54.67;;;;;9.77;26.67;101226.72;6316053;20;3617916;-45
2022/03/14 09:08:12;;;;;;;;;55.00;45.50;;;;;10.01;26.72;101224.13;6315366;20;2851793;-44
2022/03/14 09:10:42;;;;;;;;;60.00;46.33;;;;;10.30;26.96;101229.38;6282276;20;3630445;-44
2022/03/14 09:13:11;;;;;;;;;55.00;44.00;;;;;9.90;26.17;101224.50;6316934;20;2864909;-44
2022/03/14 09:15:40;;;;;;;;;53.00;41.50;;;;;10.14;26.06;101228.16;6314858;20;2859817;-44
2022/03/14 09:18:09;;;;;;;;;57.00;45.00;;;;;10.46;25.80;101218.09;6289393;20;2856707;-44
2022/03/14 09:20:39;;;;;;;;;57.00;43.67;;;;;10.28;25.79;101222.31;6283291;20;3633588;-44
2022/03/14 09:23:10;;;;;;;;;54.33;42.00;;;;;10.66;25.55;101226.28;6319397;20;2860722;-47
2022/03/14 09:25:39;;;;;;;;;46.00;37.33;;;;;10.74;25.52;101223.31;6317934;20;2873281;-44
2022/03/14 09:28:09;;;;;;;;;49.33;41.33;;;;;10.82;25.58;101231.09;6313746;20;3609832;-46
2022/03/14 09:30:39;;;;;;;;;46.00;37.67;;;;;10.85;24.77;101230.97;6316162;20;3619058;-43
2022/03/14 09:33:08;;;;;;;;;52.00;41.67;;;;;11.17;24.76;101222.53;6317338;20;2871161;-45
2022/03/14 09:35:37;;;;;;;;;50.00;38.67;;;;;10.71;24.91;101224.28;6320786;20;3631520;-49
2022/03/14 09:38:07;;;;;;;;;50.00;37.33;;;;;10.98;24.25;101226.91;6284860;20;3609636;-46
2022/03/14 09:40:36;;;;;;;;;51.33;36.67;;;;;10.69;24.33;101226.19;6316467;20;3624342;-45
2022/03/14 09:43:05;;;;;;;;;38.33;33.67;;;;;10.88;24.50;101225.50;6286924;20;3605456;-46
2022/03/14 09:45:37;;;;;;;;;42.67;34.33;;;;;11.37;25.27;101234.31;6282927;20;2862829;-45
2022/03/14 09:48:09;;;;;;;;;34.33;32.00;;;;;11.54;25.10;101233.66;6318639;20;3601285;-45
2022/03/14 09:50:41;;;;;;;;;37.00;33.00;;;;;11.23;24.61;101226.81;6283453;20;2847303;-45
2022/03/14 09:53:14;;;;;;;;;38.67;34.67;;;;;10.94;24.49;101233.31;6319453;20;3600248;-52
2022/03/14 09:55:47;;;;;;;;;20.50;17.50;;;;;11.67;24.41;101223.25;6289435;20;2816947;-52
2022/03/14 09:58:20;;;;;;;;;38.00;31.33;;;;;11.17;24.78;101230.63;6287189;20;3618066;-49
2022/03/14 10:00:50;;;;;;;;;27.00;24.67;;;;;11.24;24.63;101224.97;6320317;20;3585669;-49
2022/03/14 10:03:23;;;;;;;;;35.33;33.00;;;;;11.28;24.03;101229.31;6284398;20;3613784;-52
2022/03/14 10:05:52;;;;;;;;;22.00;18.00;;;;;11.63;24.02;101217.97;6318314;20;2824266;-51
2022/03/14 10:08:22;;;;;;;;;37.67;33.00;;;;;12.07;23.79;101220.66;6288422;20;2866016;-51
2022/03/14 10:10:51;;;;;;;;;39.67;32.33;;;;;12.24;23.73;101221.72;6319416;20;3618250;-50
2022/03/14 10:13:41;;;;;;;;;45.67;34.00;;;;;11.98;23.27;101218.38;6283349;20;2875367;-47
2022/03/14 10:16:10;;;;;;;;;36.67;34.00;;;;;12.27;23.50;101221.63;6316251;20;3597140;-48
2022/03/14 10:18:58;;;;;;;;;36.33;34.00;;;;;12.65;23.17;101216.31;6322250;20;3589893;-53
2022/03/14 10:21:40;;;;;;;;;36.00;32.33;;;;;12.55;23.49;101223.06;6285933;20;2856575;-49
2022/03/14 10:24:12;;;;;;;;;36.67;33.67;;;;;11.47;23.42;101226.75;6318209;20;3584655;-49
2022/03/14 10:26:44;;;;;;;;;37.00;33.33;;;;;11.57;23.62;101218.25;6284582;20;2847366;-49
2022/03/14 10:29:14;;;;;;;;;39.00;35.67;;;;;11.93;23.77;101223.06;6318634;20;3588845;-49
2022/03/14 10:31:54;;;;;;;;;36.67;32.00;;;;;11.78;23.85;101219.16;6281932;20;3598137;-50
2022/03/14 10:34:24;;;;;;;;;39.67;34.00;;;;;12.20;24.48;101225.50;6315664;20;3598159;-49
2022/03/14 10:36:57;;;;;;;;;34.00;34.00;;;;;12.41;23.32;101221.88;6281225;20;2837725;-44
2022/03/14 10:39:32;;;;;;;;;33.67;30.00;;;;;12.60;23.43;101221.03;6282566;20;2863287;-44
2022/03/14 10:42:12;;;;;;;;;38.00;34.67;;;;;12.74;23.60;101222.19;6320302;20;3605480;-44
2022/03/14 10:44:50;;;;;;;;;32.33;30.00;;;;;12.90;23.16;101225.03;6286587;20;2856621;-44
2022/03/14 10:47:20;;;;;;;;;32.33;29.00;;;;;12.86;23.06;101220.72;6315394;20;3597130;-46
2022/03/14 10:49:50;;;;;;;;;30.00;27.67;;;;;12.98;23.81;101218.38;6283929;20;2862878;-45
2022/03/14 10:52:22;;;;;;;;;35.33;30.00;;;;;12.43;23.69;101220.00;6318689;20;3610762;-45
2022/03/14 10:54:52;;;;;;;;;33.00;29.00;;;;;12.72;23.26;101213.28;6286888;20;2843111;-47
2022/03/14 10:57:29;;;;;;;;;32.33;29.67;;;;;12.16;23.39;101213.97;6317195;20;3595078;-48
2022/03/14 10:59:59;;;;;;;;;34.33;31.00;;;;;12.74;23.68;101221.28;6281637;20;3621123;-49
2022/03/14 11:02:29;;;;;;;;;26.00;26.00;;;;;12.69;23.23;101207.13;6318560;20;3576297;-47
2022/03/14 11:05:01;;;;;;;;;31.00;25.67;;;;;12.93;23.26;101205.16;6284567;20;3600200;-49
2022/03/14 11:07:32;;;;;;;;;33.33;29.67;;;;;12.86;23.56;101214.47;6318181;20;3597091;-47
2022/03/14 11:10:06;;;;;;;;;29.00;27.00;;;;;12.42;23.06;101210.13;6279865;20;2856537;-48